Time;durP1;ratioP1;P1;durP2;ratioP2;P2;SDS_P1;SDS_P2;PMS_P1;PMS_P2;Temp;Humidity;BMP_temperature;BMP_pressure;BME280_temperature;BME280_humidity;BME280_pressure;Samples;Min_cycle;Max_cycle;Signal;HPM_P1;HPM_P2
2023/06/02 00:00:53;;;;;;;14.87;3.23;;;12.70;99.90;;;;;;5184487;28;20572;-46
2023/06/02 00:03:26;;;;;;;13.10;3.80;;;12.70;99.90;;;;;;5170242;28;20211;-44
2023/06/02 00:06:00;;;;;;;10.17;3.20;;;12.70;99.90;;;;;;5189124;28;20172;-44
2023/06/02 00:08:32;;;;;;;12.13;3.23;;;12.60;99.90;;;;;;5184759;28;20529;-46
2023/06/02 00:11:04;;;;;;;19.40;3.70;;;12.60;99.90;;;;;;5183140;28;20434;-45
2023/06/02 00:13:35;;;;;;;11.03;3.80;;;12.50;99.90;;;;;;5179771;28;20856;-45
2023/06/02 00:16:06;;;;;;;10.83;3.50;;;12.40;99.90;;;;;;5183443;28;20431;-44
2023/06/02 00:18:37;;;;;;;21.00;3.10;;;12.40;99.90;;;;;;5180981;28;20439;-44
2023/06/02 00:21:08;;;;;;;7.83;3.83;;;12.40;99.90;;;;;;5165033;28;20919;-45
2023/06/02 00:23:38;;;;;;;14.07;3.30;;;12.30;99.90;;;;;;5176517;28;20665;-45
2023/06/02 00:26:09;;;;;;;17.53;4.10;;;12.30;99.90;;;;;;5180716;28;20315;-44
2023/06/02 00:28:40;;;;;;;10.37;3.23;;;12.20;99.90;;;;;;5161215;28;20180;-45
2023/06/02 00:31:11;;;;;;;6.77;3.53;;;12.20;99.90;;;;;;5182403;28;20191;-44
2023/06/02 00:33:41;;;;;;;9.77;3.53;;;12.30;99.90;;;;;;5178964;28;20294;-45
2023/06/02 00:36:12;;;;;;;9.70;3.23;;;12.20;99.90;;;;;;5182415;28;20526;-44
2023/06/02 00:38:43;;;;;;;16.60;3.03;;;12.20;99.90;;;;;;5179500;28;20200;-44
2023/06/02 00:41:13;;;;;;;6.53;2.93;;;12.10;99.90;;;;;;5180223;28;20254;-44
2023/06/02 00:43:44;;;;;;;21.83;4.00;;;12.10;99.90;;;;;;5183770;28;20319;-44
2023/06/02 00:46:15;;;;;;;10.40;4.00;;;12.10;99.90;;;;;;5177813;28;20198;-44
2023/06/02 00:48:48;;;;;;;14.27;3.87;;;12.00;99.90;;;;;;5181450;28;20198;-45
2023/06/02 00:51:19;;;;;;;19.50;4.53;;;12.00;99.90;;;;;;5181709;28;20196;-44
2023/06/02 00:53:51;;;;;;;16.33;3.30;;;12.00;99.90;;;;;;5147906;28;20510;-45
2023/06/02 00:56:22;;;;;;;26.20;4.03;;;12.10;99.90;;;;;;5180779;28;20526;-45
2023/06/02 00:58:53;;;;;;;21.70;4.30;;;11.90;99.90;;;;;;5185598;28;20522;-44
2023/06/02 01:01:25;;;;;;;17.83;4.27;;;11.90;99.90;;;;;;5182376;28;20514;-46
2023/06/02 01:03:55;;;;;;;10.93;3.77;;;11.80;99.90;;;;;;5187045;28;20550;-43
2023/06/02 01:06:34;;;;;;;17.63;3.70;;;11.80;99.90;;;;;;5176983;28;20933;-45
2023/06/02 01:09:08;;;;;;;15.53;3.67;;;11.80;99.90;;;;;;5146356;28;20176;-44
2023/06/02 01:11:39;;;;;;;8.27;3.30;;;11.80;99.90;;;;;;5182021;28;20438;-45
2023/06/02 01:14:10;;;;;;;20.07;3.70;;;11.80;99.90;;;;;;5182672;28;20466;-43
2023/06/02 01:16:44;;;;;;;24.03;3.50;;;11.70;99.90;;;;;;5169988;28;20449;-44
2023/06/02 01:19:20;;;;;;;7.33;3.83;;;11.80;99.90;;;;;;5186427;28;20180;-44
2023/06/02 01:21:59;;;;;;;17.13;3.97;;;11.70;99.90;;;;;;5184533;28;20450;-43
2023/06/02 01:24:38;;;;;;;15.20;3.43;;;11.70;99.90;;;;;;5176162;28;20477;-44
2023/06/02 01:27:12;;;;;;;13.60;3.83;;;11.70;99.90;;;;;;5167940;28;20446;-45
2023/06/02 01:29:44;;;;;;;13.87;4.23;;;11.60;99.90;;;;;;5183123;28;20462;-46
2023/06/02 01:32:35;;;;;;;6.23;3.27;;;11.60;99.90;;;;;;5181865;28;20493;-45
2023/06/02 01:35:09;;;;;;;12.77;4.23;;;11.60;99.90;;;;;;5186321;28;20471;-45
2023/06/02 01:37:54;;;;;;;14.93;3.70;;;11.50;99.90;;;;;;5168471;28;21026;-44
2023/06/02 01:40:25;;;;;;;15.20;4.60;;;11.60;99.90;;;;;;5186275;28;20431;-44
2023/06/02 01:42:58;;;;;;;12.60;3.63;;;11.50;99.90;;;;;;5188225;28;20985;-45
2023/06/02 01:45:30;;;;;;;16.60;3.97;;;11.40;99.90;;;;;;5151032;28;20501;-44
2023/06/02 01:48:03;;;;;;;11.80;3.50;;;11.40;99.90;;;;;;5181449;28;20435;-44
2023/06/02 01:50:36;;;;;;;13.63;3.63;;;11.40;99.90;;;;;;5187663;28;20530;-44
2023/06/02 01:53:07;;;;;;;19.23;3.37;;;11.30;99.90;;;;;;5168890;28;20866;-43
2023/06/02 01:55:38;;;;;;;22.90;4.27;;;11.30;99.90;;;;;;5164696;28;20435;-44
2023/06/02 01:58:09;;;;;;;15.07;3.70;;;11.30;99.90;;;;;;5184522;28;20180;-45
2023/06/02 02:00:41;;;;;;;12.93;3.53;;;11.20;99.90;;;;;;5184983;28;20809;-44
2023/06/02 02:03:13;;;;;;;11.63;3.67;;;11.20;99.90;;;;;;5187062;28;20200;-44
2023/06/02 02:05:44;;;;;;;28.27;3.87;;;11.10;99.90;;;;;;5183088;28;20439;-45
2023/06/02 02:08:16;;;;;;;13.37;3.83;;;11.10;99.90;;;;;;5184859;28;20501;-46
2023/06/02 02:10:46;;;;;;;14.47;3.80;;;11.00;99.90;;;;;;5186934;28;20665;-45
2023/06/02 02:13:19;;;;;;;23.50;4.13;;;11.00;99.90;;;;;;5189697;28;20471;-43
2023/06/02 02:15:49;;;;;;;16.83;4.00;;;11.00;99.90;;;;;;5185417;28;20703;-44
2023/06/02 02:18:20;;;;;;;17.93;3.83;;;10.90;99.90;;;;;;5192176;28;20436;-44
2023/06/02 02:20:51;;;;;;;12.80;3.50;;;10.80;99.90;;;;;;5191008;28;20700;-44
2023/06/02 02:23:21;;;;;;;11.90;3.87;;;10.80;99.90;;;;;;5188764;28;20250;-45
2023/06/02 02:25:52;;;;;;;21.50;3.77;;;10.80;99.90;;;;;;5157182;28;20288;-44
2023/06/02 02:28:22;;;;;;;12.50;3.60;;;10.80;99.90;;;;;;5190511;28;20662;-44
2023/06/02 02:30:53;;;;;;;20.07;3.60;;;10.70;99.90;;;;;;5171698;28;20659;-45
2023/06/02 02:33:24;;;;;;;13.17;4.60;;;10.60;99.90;;;;;;5185099;28;20223;-44
2023/06/02 02:35:54;;;;;;;24.10;4.07;;;10.50;99.90;;;;;;5185970;28;20188;-46
2023/06/02 02:38:25;;;;;;;23.23;4.20;;;10.50;99.90;;;;;;5187918;28;20191;-45
2023/06/02 02:40:56;;;;;;;17.37;4.63;;;10.50;99.90;;;;;;5187923;28;20522;-44
2023/06/02 02:43:26;;;;;;;12.40;4.17;;;10.50;99.90;;;;;;5166871;28;20436;-44
2023/06/02 02:45:57;;;;;;;18.13;4.20;;;10.60;99.90;;;;;;5182174;28;20192;-44
2023/06/02 02:48:27;;;;;;;12.00;3.97;;;10.60;99.90;;;;;;5185048;28;20332;-44
2023/06/02 02:50:58;;;;;;;24.07;3.97;;;10.60;99.90;;;;;;5183099;28;20192;-43
2023/06/02 02:53:31;;;;;;;19.37;4.23;;;10.60;99.90;;;;;;5153530;28;20219;-46
2023/06/02 02:56:02;;;;;;;11.27;4.33;;;10.70;99.90;;;;;;5181448;28;20176;-44
2023/06/02 02:58:36;;;;;;;13.03;3.67;;;10.60;99.90;;;;;;5186955;28;20536;-44
2023/06/02 03:01:16;;;;;;;26.43;4.27;;;10.60;99.90;;;;;;5184339;28;20958;-44
2023/06/02 03:03:46;;;;;;;6.30;3.37;;;10.60;99.90;;;;;;5185205;28;20512;-44
2023/06/02 03:06:18;;;;;;;21.37;4.43;;;10.60;99.90;;;;;;5186267;28;20802;-44
2023/06/02 03:08:48;;;;;;;29.40;3.43;;;10.50;99.90;;;;;;5186034;28;20181;-45
2023/06/02 03:11:21;;;;;;;7.27;3.20;;;10.50;99.90;;;;;;5182291;28;20444;-45
2023/06/02 03:13:52;;;;;;;20.57;4.27;;;10.50;99.90;;;;;;5184283;28;20239;-44
2023/06/02 03:16:22;;;;;;;16.13;4.83;;;10.50;99.90;;;;;;5183603;28;20521;-45
2023/06/02 03:18:53;;;;;;;17.27;3.53;;;10.50;99.90;;;;;;5184022;28;20454;-44
2023/06/02 03:21:26;;;;;;;13.10;3.47;;;10.70;99.90;;;;;;5164986;28;20211;-45
2023/06/02 03:23:58;;;;;;;27.57;4.67;;;10.70;99.90;;;;;;5182563;28;20553;-45
2023/06/02 03:26:29;;;;;;;12.00;3.80;;;10.70;99.90;;;;;;5165672;28;21269;-46
2023/06/02 03:28:59;;;;;;;16.40;4.30;;;10.70;99.90;;;;;;5183549;28;20533;-44
2023/06/02 03:31:30;;;;;;;21.73;4.10;;;10.80;99.90;;;;;;5182116;28;20185;-44
2023/06/02 03:34:02;;;;;;;14.30;3.60;;;10.90;99.90;;;;;;5183253;28;20204;-43
2023/06/02 03:36:36;;;;;;;15.10;3.20;;;11.00;99.90;;;;;;5182351;28;20188;-44
2023/06/02 03:39:09;;;;;;;17.03;4.13;;;11.20;99.90;;;;;;5179228;28;20434;-44
2023/06/02 03:41:40;;;;;;;13.67;3.47;;;11.30;99.90;;;;;;5178431;28;20463;-44
2023/06/02 03:44:11;;;;;;;19.03;5.13;;;11.50;99.90;;;;;;5182172;28;20553;-44
2023/06/02 03:46:41;;;;;;;19.53;4.03;;;11.40;99.90;;;;;;5183487;28;20669;-43
2023/06/02 03:49:12;;;;;;;25.00;4.67;;;11.50;99.90;;;;;;5180507;28;20184;-44
2023/06/02 03:51:43;;;;;;;11.07;3.80;;;11.50;99.90;;;;;;5183688;28;20259;-44
2023/06/02 03:54:13;;;;;;;9.03;3.27;;;11.40;99.90;;;;;;5163805;28;20208;-45
2023/06/02 03:56:44;;;;;;;11.70;4.43;;;11.40;99.90;;;;;;5187626;28;20466;-45
2023/06/02 03:59:15;;;;;;;19.60;3.80;;;11.40;99.90;;;;;;5183541;28;20545;-44
2023/06/02 04:01:46;;;;;;;21.00;4.07;;;11.30;99.90;;;;;;5180342;28;20180;-43
2023/06/02 04:04:16;;;;;;;16.60;3.57;;;11.40;99.90;;;;;;5182538;28;20520;-44
2023/06/02 04:06:47;;;;;;;13.23;3.43;;;11.40;99.90;;;;;;5187549;28;20234;-44
2023/06/02 04:09:18;;;;;;;14.60;3.57;;;11.50;99.90;;;;;;5179932;28;20532;-45
2023/06/02 04:11:49;;;;;;;13.80;3.80;;;11.40;99.90;;;;;;5184995;28;20424;-44
2023/06/02 04:14:20;;;;;;;14.97;3.90;;;11.40;99.90;;;;;;5183277;28;20274;-43
2023/06/02 04:16:50;;;;;;;10.10;4.37;;;11.50;99.90;;;;;;5150182;28;20219;-45
2023/06/02 04:19:21;;;;;;;6.73;3.17;;;11.30;99.90;;;;;;5185613;28;20199;-45
2023/06/02 04:21:53;;;;;;;25.17;4.07;;;11.50;99.90;;;;;;5181566;28;20188;-45
2023/06/02 04:24:23;;;;;;;17.33;4.13;;;11.80;99.90;;;;;;5181123;28;20563;-44
2023/06/02 04:26:54;;;;;;;23.63;4.20;;;12.00;99.90;;;;;;5177315;28;20501;-45
2023/06/02 04:29:25;;;;;;;13.27;3.37;;;12.20;99.90;;;;;;5161666;28;20181;-44
2023/06/02 04:31:56;;;;;;;13.63;4.03;;;12.40;99.90;;;;;;5179145;28;20184;-44
2023/06/02 04:34:26;;;;;;;17.40;4.03;;;12.50;99.90;;;;;;5182179;28;20478;-44
2023/06/02 04:36:58;;;;;;;10.43;3.87;;;12.50;99.90;;;;;;5177778;28;20188;-45
2023/06/02 04:39:28;;;;;;;14.30;4.17;;;12.40;99.90;;;;;;5168574;28;20252;-44
2023/06/02 04:41:59;;;;;;;26.13;4.13;;;12.20;99.90;;;;;;5176996;28;20510;-45
2023/06/02 04:44:30;;;;;;;19.03;4.43;;;12.20;99.90;;;;;;5176277;28;20220;-44
2023/06/02 04:47:00;;;;;;;15.53;4.13;;;12.30;99.90;;;;;;5159869;28;20188;-45
2023/06/02 04:49:31;;;;;;;12.97;3.60;;;12.10;99.90;;;;;;5173455;28;20177;-45
2023/06/02 04:52:05;;;;;;;25.30;4.57;;;12.00;99.90;;;;;;5171528;28;20199;-45
2023/06/02 04:54:35;;;;;;;18.90;4.27;;;12.00;99.90;;;;;;5176119;28;20204;-45
2023/06/02 04:57:07;;;;;;;13.83;4.70;;;12.00;99.90;;;;;;5173250;28;20439;-44
2023/06/02 04:59:37;;;;;;;9.33;4.03;;;12.00;99.90;;;;;;5160542;28;20173;-45
2023/06/02 05:02:08;;;;;;;24.23;4.50;;;12.10;99.90;;;;;;5179532;28;20431;-44
2023/06/02 05:04:39;;;;;;;15.23;3.10;;;12.20;99.90;;;;;;5165556;28;20295;-45
2023/06/02 05:07:09;;;;;;;20.00;3.50;;;12.30;99.90;;;;;;5189879;28;20177;-45
2023/06/02 05:09:40;;;;;;;12.80;3.57;;;12.50;99.90;;;;;;5185084;28;20434;-45
2023/06/02 05:12:11;;;;;;;11.40;4.00;;;12.60;99.90;;;;;;5185464;28;20187;-44
2023/06/02 05:14:42;;;;;;;21.43;4.50;;;12.60;99.90;;;;;;5188847;28;20314;-45
2023/06/02 05:17:14;;;;;;;18.77;5.30;;;12.60;99.90;;;;;;5187605;28;20184;-45
2023/06/02 05:19:44;;;;;;;11.63;4.40;;;12.60;99.90;;;;;;5186318;28;20978;-44
2023/06/02 05:22:15;;;;;;;19.87;4.63;;;12.80;99.90;;;;;;5187400;28;20509;-45
2023/06/02 05:24:46;;;;;;;14.30;4.00;;;13.00;99.90;;;;;;5185572;28;20287;-45
2023/06/02 05:27:16;;;;;;;16.67;3.97;;;13.00;99.90;;;;;;5168296;28;20188;-46
2023/06/02 05:29:47;;;;;;;16.80;4.13;;;13.10;99.90;;;;;;5187605;28;20283;-45
2023/06/02 05:32:22;;;;;;;16.13;4.10;;;13.30;99.90;;;;;;5184894;28;20267;-46
2023/06/02 05:34:52;;;;;;;12.33;4.27;;;13.30;99.90;;;;;;5172800;28;20553;-45
2023/06/02 05:37:23;;;;;;;19.00;5.10;;;13.40;99.90;;;;;;5181345;28;20518;-44
2023/06/02 05:39:53;;;;;;;6.73;2.97;;;13.70;99.90;;;;;;5179901;28;20263;-45
2023/06/02 05:42:25;;;;;;;19.60;5.13;;;13.70;99.90;;;;;;5166443;28;20238;-45
2023/06/02 05:44:56;;;;;;;8.17;3.80;;;13.70;99.90;;;;;;5168563;28;20775;-44
2023/06/02 05:47:26;;;;;;;13.10;4.20;;;13.80;99.90;;;;;;5185450;28;20423;-46
2023/06/02 05:49:57;;;;;;;12.90;4.00;;;13.80;99.90;;;;;;5165665;28;20258;-45
2023/06/02 05:52:28;;;;;;;13.23;3.40;;;13.90;99.90;;;;;;5163932;28;20187;-46
2023/06/02 05:54:58;;;;;;;8.97;2.93;;;13.70;99.90;;;;;;5183281;28;20862;-45
2023/06/02 05:57:29;;;;;;;17.57;3.90;;;13.60;99.90;;;;;;5182838;28;20195;-45
2023/06/02 06:00:00;;;;;;;20.27;6.43;;;13.50;99.90;;;;;;5182381;28;20223;-45
2023/06/02 06:02:30;;;;;;;23.30;6.00;;;13.40;99.90;;;;;;5166184;28;20216;-45
2023/06/02 06:05:01;;;;;;;8.97;4.17;;;13.10;99.90;;;;;;5182653;28;20225;-45
2023/06/02 06:07:32;;;;;;;14.53;3.97;;;13.00;99.90;;;;;;5166131;28;20601;-44
2023/06/02 06:10:03;;;;;;;16.27;4.30;;;12.90;99.90;;;;;;5184011;28;20176;-46
2023/06/02 06:12:33;;;;;;;20.53;5.20;;;12.80;99.90;;;;;;5180689;28;20274;-45
2023/06/02 06:15:05;;;;;;;16.47;4.50;;;12.70;99.90;;;;;;5184336;28;20551;-44
2023/06/02 06:17:53;;;;;;;23.07;4.80;;;12.50;99.90;;;;;;5187020;28;20189;-44
2023/06/02 06:20:23;;;;;;;13.17;3.57;;;12.40;99.90;;;;;;5184722;28;20435;-45
2023/06/02 06:22:54;;;;;;;14.40;4.77;;;12.50;99.90;;;;;;5185896;28;20561;-45
2023/06/02 06:25:24;;;;;;;20.53;6.33;;;12.60;99.90;;;;;;5174698;28;20238;-45
2023/06/02 06:27:55;;;;;;;14.27;4.43;;;12.60;99.90;;;;;;5176086;28;20184;-44
2023/06/02 06:30:26;;;;;;;12.87;5.30;;;12.90;99.90;;;;;;5182875;28;20192;-44
2023/06/02 06:32:57;;;;;;;16.67;4.40;;;13.10;99.90;;;;;;5158334;28;20230;-45
2023/06/02 06:35:28;;;;;;;8.07;3.50;;;13.10;99.90;;;;;;5184122;28;20184;-44
2023/06/02 06:38:00;;;;;;;11.80;3.77;;;13.30;99.90;;;;;;5171218;28;20514;-46
2023/06/02 06:40:33;;;;;;;20.10;4.83;;;13.60;99.90;;;;;;5183973;28;20454;-47
2023/06/02 06:43:04;;;;;;;13.13;4.23;;;13.90;99.90;;;;;;5181211;28;20437;-45
2023/06/02 06:45:35;;;;;;;16.37;5.30;;;14.00;99.90;;;;;;5179606;28;20435;-46
2023/06/02 06:48:06;;;;;;;15.33;4.27;;;14.20;99.90;;;;;;5181864;28;20173;-45
2023/06/02 06:50:37;;;;;;;13.73;4.10;;;14.50;99.90;;;;;;5161516;28;20544;-44
2023/06/02 06:53:08;;;;;;;13.30;4.37;;;14.70;99.90;;;;;;5172915;28;20443;-45
2023/06/02 06:55:40;;;;;;;13.60;4.03;;;14.90;99.90;;;;;;5180949;28;20185;-44
2023/06/02 06:58:10;;;;;;;11.27;4.13;;;15.10;99.90;;;;;;5183581;28;20443;-46
2023/06/02 07:00:41;;;;;;;7.67;3.93;;;15.10;99.90;;;;;;5168369;28;20827;-45
2023/06/02 07:03:12;;;;;;;14.77;4.40;;;15.20;99.90;;;;;;5183968;28;20259;-44
2023/06/02 07:05:43;;;;;;;8.67;4.20;;;16.10;99.90;;;;;;5163627;28;20184;-45
2023/06/02 07:08:14;;;;;;;17.10;6.30;;;16.80;99.90;;;;;;5182351;28;20188;-46
2023/06/02 07:10:44;;;;;;;17.37;5.30;;;16.90;99.90;;;;;;5179593;28;21008;-45
2023/06/02 07:13:15;;;;;;;16.57;5.10;;;16.90;99.90;;;;;;5159215;28;20668;-45
2023/06/02 07:15:46;;;;;;;21.50;5.20;;;16.90;99.90;;;;;;5142020;28;20279;-46
2023/06/02 07:18:17;;;;;;;20.63;5.33;;;17.00;99.90;;;;;;5169409;28;20506;-45
2023/06/02 07:20:47;;;;;;;13.33;5.37;;;16.60;99.90;;;;;;5163896;28;20273;-45
2023/06/02 07:23:18;;;;;;;9.20;4.63;;;16.50;99.90;;;;;;5181651;28;20212;-46
2023/06/02 07:25:49;;;;;;;26.40;5.73;;;16.30;99.90;;;;;;5182114;28;20283;-45
2023/06/02 07:28:20;;;;;;;16.43;5.70;;;16.00;99.90;;;;;;5148279;28;20660;-46
2023/06/02 07:30:52;;;;;;;11.53;5.30;;;15.80;99.90;;;;;;5179797;28;20184;-46
2023/06/02 07:33:22;;;;;;;8.97;4.50;;;15.70;99.90;;;;;;5165983;28;20715;-46
2023/06/02 07:35:53;;;;;;;21.07;4.97;;;15.70;99.90;;;;;;5164249;28;20432;-46
2023/06/02 07:38:24;;;;;;;26.57;7.17;;;15.50;99.90;;;;;;5181304;28;20188;-45
2023/06/02 07:40:54;;;;;;;15.27;6.00;;;15.50;99.90;;;;;;5182136;28;20187;-46
2023/06/02 07:43:25;;;;;;;26.40;6.10;;;15.30;99.90;;;;;;5179945;28;20235;-45
2023/06/02 07:45:56;;;;;;;15.97;4.87;;;15.10;99.90;;;;;;5177934;28;20191;-46
2023/06/02 07:48:26;;;;;;;14.43;4.90;;;15.00;99.90;;;;;;5183827;28;20254;-45
2023/06/02 07:50:57;;;;;;;11.30;4.40;;;15.30;99.90;;;;;;5163301;28;20653;-46
2023/06/02 07:53:28;;;;;;;11.97;4.47;;;15.60;99.90;;;;;;5179530;28;20660;-46
2023/06/02 07:55:58;;;;;;;11.13;4.30;;;15.90;99.90;;;;;;5181510;28;20180;-46
2023/06/02 07:58:29;;;;;;;18.37;4.67;;;16.20;99.90;;;;;;5178128;28;20184;-46
2023/06/02 08:01:00;;;;;;;9.40;3.90;;;16.30;99.90;;;;;;5181196;28;20180;-46
2023/06/02 08:03:30;;;;;;;15.87;4.33;;;16.40;99.90;;;;;;5177934;28;20207;-45
2023/06/02 08:06:02;;;;;;;12.33;4.20;;;15.90;99.90;;;;;;5178638;28;20598;-48
2023/06/02 08:08:32;;;;;;;6.20;3.87;;;15.60;99.90;;;;;;5164430;28;20184;-45
2023/06/02 08:11:03;;;;;;;10.50;3.77;;;15.20;99.90;;;;;;5159365;28;20516;-45
2023/06/02 08:13:33;;;;;;;11.17;3.67;;;14.90;99.90;;;;;;5179348;28;20212;-46
2023/06/02 08:16:05;;;;;;;14.30;4.57;;;14.60;99.90;;;;;;5179191;28;20219;-47
2023/06/02 08:18:36;;;;;;;5.63;3.67;;;14.50;99.90;;;;;;5171467;28;20180;-46
2023/06/02 08:21:06;;;;;;;9.97;4.00;;;14.40;99.90;;;;;;5167195;28;20439;-46
2023/06/02 08:23:37;;;;;;;8.77;3.47;;;14.40;99.90;;;;;;5187782;28;20549;-45
2023/06/02 08:26:07;;;;;;;7.97;2.97;;;14.60;99.90;;;;;;5185871;28;20176;-46
2023/06/02 08:28:38;;;;;;;7.03;2.93;;;14.70;99.90;;;;;;5186456;28;20187;-46
2023/06/02 08:31:09;;;;;;;6.23;3.57;;;14.90;99.90;;;;;;5182855;28;20192;-47
2023/06/02 08:33:40;;;;;;;14.93;3.43;;;15.00;99.90;;;;;;5186961;28;20455;-45
2023/06/02 08:36:13;;;;;;;10.60;3.27;;;15.10;99.90;;;;;;5169610;28;20237;-46
2023/06/02 08:38:44;;;;;;;5.57;3.43;;;15.30;99.90;;;;;;5177899;28;20808;-45
2023/06/02 08:41:16;;;;;;;5.23;2.53;;;15.90;99.90;;;;;;5179130;28;20465;-45
2023/06/02 08:43:46;;;;;;;5.50;2.97;;;16.10;99.90;;;;;;5166225;28;20326;-46
2023/06/02 08:46:17;;;;;;;2.77;2.33;;;16.30;99.90;;;;;;5189760;28;20521;-45
2023/06/02 08:48:51;;;;;;;5.20;2.93;;;16.60;99.90;;;;;;5172706;28;20183;-46
2023/06/02 08:51:22;;;;;;;3.20;3.00;;;17.20;99.90;;;;;;5191948;28;20218;-45
2023/06/02 08:53:54;;;;;;;5.20;2.40;;;17.90;99.90;;;;;;5168816;28;20473;-46
2023/06/02 08:56:24;;;;;;;4.97;3.23;;;18.30;98.60;;;;;;5189650;28;20486;-45
2023/06/02 08:58:55;;;;;;;12.27;2.77;;;18.50;94.20;;;;;;5168109;28;20439;-45
2023/06/02 09:01:25;;;;;;;7.37;2.53;;;18.50;93.00;;;;;;5168232;28;20180;-46
2023/06/02 09:03:56;;;;;;;2.60;2.40;;;18.40;91.30;;;;;;5189007;28;20819;-45
2023/06/02 09:06:28;;;;;;;5.70;2.67;;;18.50;91.00;;;;;;5186321;28;20180;-45
2023/06/02 09:09:00;;;;;;;2.40;2.30;;;18.60;83.40;;;;;;5183066;28;20222;-44
2023/06/02 09:11:32;;;;;;;2.43;2.23;;;18.80;75.80;;;;;;5183069;28;20794;-47
2023/06/02 09:14:19;;;;;;;2.20;2.10;;;18.90;73.70;;;;;;5182357;28;20494;-45
2023/06/02 09:16:50;;;;;;;1.90;1.80;;;18.80;71.60;;;;;;5169666;28;20457;-47
2023/06/02 09:19:20;;;;;;;4.13;2.30;;;18.60;70.80;;;;;;5183721;28;20504;-46
2023/06/02 09:21:51;;;;;;;1.70;1.60;;;18.40;71.10;;;;;;5166159;28;20172;-45
2023/06/02 09:24:32;;;;;;;6.40;1.97;;;18.30;62.90;;;;;;5167591;28;21166;-46
2023/06/02 09:27:02;;;;;;;1.87;1.70;;;18.30;59.70;;;;;;5181885;28;20184;-45
2023/06/02 09:29:38;;;;;;;4.87;1.23;;;18.70;55.00;;;;;;5182764;28;20443;-45
2023/06/02 09:32:18;;;;;;;3.23;1.60;;;19.10;52.50;;;;;;5167432;28;20810;-45
2023/06/02 09:34:49;;;;;;;2.50;1.40;;;19.20;51.90;;;;;;5179817;28;20573;-45
2023/06/02 09:37:22;;;;;;;4.20;1.20;;;19.50;50.90;;;;;;5179627;28;20553;-45
2023/06/02 09:39:53;;;;;;;2.30;1.20;;;19.30;49.40;;;;;;5179924;28;20258;-45
2023/06/02 09:42:24;;;;;;;1.20;1.10;;;19.60;44.50;;;;;;5182240;28;20485;-43
2023/06/02 09:45:02;;;;;;;1.30;1.20;;;19.60;42.90;;;;;;5178776;28;20211;-46
2023/06/02 09:47:43;;;;;;;3.33;1.47;;;19.40;43.20;;;;;;5166511;28;20494;-46
2023/06/02 09:50:52;;;;;;;3.60;1.73;;;19.50;43.20;;;;;;5182644;28;20431;-46
2023/06/02 09:53:24;;;;;;;4.20;1.13;;;19.50;43.70;;;;;;5073730;29;20603;-45
2023/06/02 09:55:55;;;;;;;3.20;1.57;;;19.10;43.30;;;;;;5080320;29;20443;-45
2023/06/02 09:58:25;;;;;;;4.30;1.70;;;18.90;44.00;;;;;;5120341;28;21056;-45
2023/06/02 10:00:56;;;;;;;2.17;1.23;;;19.00;43.50;;;;;;5181365;28;20192;-45
2023/06/02 10:03:27;;;;;;;0.80;0.80;;;19.10;43.30;;;;;;5182349;28;20204;-45
2023/06/02 10:06:25;;;;;;;5.10;1.33;;;19.10;42.90;;;;;;5182321;28;20254;-46
2023/06/02 10:09:14;;;;;;;1.20;1.10;;;19.00;43.20;;;;;;5182767;28;20647;-45
2023/06/02 10:11:56;;;;;;;2.73;1.17;;;19.40;43.70;;;;;;5185733;28;20479;-45
2023/06/02 10:14:39;;;;;;;1.27;1.17;;;19.60;42.30;;;;;;5179807;28;20942;-46
2023/06/02 10:17:28;;;;;;;4.43;1.23;;;19.90;42.40;;;;;;5178470;28;20512;-45
2023/06/02 10:20:08;;;;;;;0.97;0.90;;;19.90;41.50;;;;;;5177457;28;20493;-46
2023/06/02 10:23:09;;;;;;;3.30;1.40;;;20.00;42.00;;;;;;5180092;28;20542;-46
2023/06/02 10:25:56;;;;;;;1.47;1.17;;;20.00;41.50;;;;;;5185276;28;20439;-44
2023/06/02 10:28:29;;;;;;;1.37;1.00;;;20.30;42.20;;;;;;5184805;28;20441;-46
2023/06/02 10:31:07;;;;;;;3.43;1.17;;;20.80;41.40;;;;;;5188012;28;20427;-45
2023/06/02 10:33:44;;;;;;;1.87;1.10;;;20.90;41.10;;;;;;5182839;28;20477;-45
2023/06/02 10:36:18;;;;;;;3.07;1.10;;;20.40;41.30;;;;;;5182743;28;20427;-51
2023/06/02 10:38:48;;;;;;;3.03;1.10;;;20.00;42.40;;;;;;5182591;28;20966;-45
2023/06/02 10:41:21;;;;;;;2.53;1.57;;;19.80;42.10;;;;;;5182882;28;20489;-45
2023/06/02 10:44:22;;;;;;;1.67;1.37;;;20.00;42.70;;;;;;5176802;28;20288;-44
2023/06/02 10:47:17;;;;;;;1.30;1.30;;;20.10;42.70;;;;;;5182480;28;20529;-46
2023/06/02 10:49:54;;;;;;;1.27;1.17;;;20.10;42.20;;;;;;5182358;28;20455;-45
2023/06/02 10:52:25;;;;;;;2.97;1.13;;;19.80;43.10;;;;;;5185198;28;20435;-45
2023/06/02 10:55:08;;;;;;;3.00;1.37;;;19.70;43.90;;;;;;5181415;28;21017;-46
2023/06/02 10:57:57;;;;;;;1.07;1.07;;;19.60;44.50;;;;;;5175325;28;20791;-45
2023/06/02 11:00:35;;;;;;;3.40;1.70;;;19.50;44.90;;;;;;5183161;28;20481;-45
2023/06/02 11:03:09;;;;;;;3.50;0.90;;;19.40;45.10;;;;;;5182707;28;20544;-46
2023/06/02 11:05:41;;;;;;;3.23;1.60;;;19.10;45.50;;;;;;5161351;28;20480;-51
2023/06/02 11:08:15;;;;;;;1.27;1.17;;;19.00;45.40;;;;;;5183439;28;20530;-46
2023/06/02 11:10:52;;;;;;;1.27;0.93;;;19.00;45.70;;;;;;5175135;28;20836;-47
2023/06/02 11:13:24;;;;;;;2.27;1.47;;;19.00;45.60;;;;;;5163779;28;20463;-45
2023/06/02 11:15:55;;;;;;;0.90;0.90;;;19.10;46.20;;;;;;5183175;28;20442;-46
2023/06/02 11:18:27;;;;;;;3.97;1.37;;;19.10;45.40;;;;;;5177602;28;20496;-45
2023/06/02 11:21:00;;;;;;;1.60;1.50;;;19.10;45.30;;;;;;5174517;28;20443;-45
2023/06/02 11:23:31;;;;;;;2.30;1.10;;;19.20;44.60;;;;;;5175143;28;20826;-45
2023/06/02 11:26:05;;;;;;;4.23;1.60;;;19.20;45.00;;;;;;5175421;28;20435;-45
2023/06/02 11:28:36;;;;;;;2.97;1.60;;;19.10;44.90;;;;;;5175072;28;20187;-46
2023/06/02 11:31:14;;;;;;;3.13;1.23;;;19.30;45.10;;;;;;5163249;28;20435;-45
2023/06/02 11:33:50;;;;;;;7.67;1.70;;;19.40;44.50;;;;;;5170120;28;20319;-45
2023/06/02 11:36:29;;;;;;;1.60;1.50;;;19.30;44.10;;;;;;5175026;28;20533;-46
2023/06/02 11:39:04;;;;;;;1.37;1.37;;;19.00;44.80;;;;;;5176649;28;20435;-46
2023/06/02 11:41:36;;;;;;;3.27;1.00;;;19.00;44.40;;;;;;5176541;28;20431;-45
2023/06/02 11:44:10;;;;;;;3.30;1.50;;;18.90;43.00;;;;;;5180121;28;20481;-45
2023/06/02 11:46:45;;;;;;;2.33;1.10;;;18.60;42.50;;;;;;5182520;28;20438;-45
2023/06/02 11:49:16;;;;;;;4.03;1.00;;;18.60;42.60;;;;;;5186395;28;20446;-45
2023/06/02 11:51:46;;;;;;;1.17;1.07;;;18.60;41.80;;;;;;5175547;28;20479;-44
2023/06/02 11:54:18;;;;;;;1.17;1.17;;;18.80;41.50;;;;;;5177415;28;20227;-45
2023/06/02 11:56:52;;;;;;;5.60;0.80;;;19.10;41.50;;;;;;5181861;28;22040;-46
2023/06/02 11:59:23;;;;;;;1.17;1.07;;;19.20;40.20;;;;;;5182694;28;20443;-45
2023/06/02 12:01:53;;;;;;;0.70;0.63;;;19.20;40.20;;;;;;5181405;28;20446;-47
2023/06/02 12:04:24;;;;;;;5.07;0.87;;;19.20;38.60;;;;;;5164841;28;20265;-48
2023/06/02 12:06:55;;;;;;;0.93;0.80;;;19.10;37.00;;;;;;5178262;28;20295;-46
2023/06/02 12:09:29;;;;;;;2.10;0.63;;;19.00;37.10;;;;;;5173768;28;20203;-46
2023/06/02 12:12:07;;;;;;;3.27;1.43;;;19.00;36.00;;;;;;5175282;28;20187;-46
2023/06/02 12:14:38;;;;;;;1.83;1.13;;;18.90;36.20;;;;;;5172656;28;20514;-45
2023/06/02 12:17:08;;;;;;;1.30;0.60;;;18.70;36.00;;;;;;5177750;28;20557;-45
2023/06/02 12:19:39;;;;;;;5.50;0.70;;;18.60;34.40;;;;;;5176787;28;20257;-44
2023/06/02 12:22:15;;;;;;;0.70;0.70;;;18.70;34.20;;;;;;5185307;28;20180;-45
2023/06/02 12:24:45;;;;;;;1.13;1.03;;;18.80;34.20;;;;;;5173892;28;20321;-45
2023/06/02 12:27:23;;;;;;;14.00;1.50;;;18.70;33.30;;;;;;5177395;28;20524;-45
2023/06/02 12:29:54;;;;;;;4.27;0.80;;;18.80;33.50;;;;;;5162445;28;20225;-45
2023/06/02 12:32:29;;;;;;;13.20;1.37;;;18.80;33.50;;;;;;5178853;28;20443;-47
2023/06/02 12:34:59;;;;;;;0.70;0.70;;;19.00;33.30;;;;;;5164554;28;20238;-45
2023/06/02 12:37:30;;;;;;;1.10;1.10;;;18.90;32.80;;;;;;5178658;28;20502;-45
2023/06/02 12:40:01;;;;;;;4.77;0.60;;;19.00;32.10;;;;;;5182046;28;20255;-45
2023/06/02 12:42:31;;;;;;;5.27;0.93;;;18.90;31.80;;;;;;5180865;28;20263;-46
2023/06/02 12:45:02;;;;;;;4.47;0.83;;;18.80;32.00;;;;;;5175174;28;20637;-44
2023/06/02 12:47:33;;;;;;;1.23;0.70;;;18.80;32.10;;;;;;5175374;28;20310;-45
2023/06/02 12:50:07;;;;;;;0.90;0.90;;;18.90;31.60;;;;;;5177471;28;20550;-45
2023/06/02 12:52:37;;;;;;;5.70;1.87;;;18.90;31.30;;;;;;5175131;28;20454;-45
2023/06/02 12:55:08;;;;;;;2.77;0.60;;;19.00;31.60;;;;;;5183203;28;20479;-45
2023/06/02 12:57:39;;;;;;;3.67;1.27;;;18.90;31.00;;;;;;5159906;28;20176;-46
2023/06/02 13:00:10;;;;;;;1.33;0.77;;;18.90;30.80;;;;;;5178941;28;20437;-44
2023/06/02 13:02:44;;;;;;;2.33;1.50;;;18.80;31.00;;;;;;5163000;28;20188;-45
2023/06/02 13:05:15;;;;;;;1.57;1.47;;;18.60;31.30;;;;;;5175667;28;20200;-47
2023/06/02 13:07:46;;;;;;;4.43;0.80;;;18.70;31.40;;;;;;5177541;28;20450;-46